sensor_id;sensor_type;location;lat;lon;timestamp;P1;durP1;ratioP1;P2;durP2;ratioP2
29938;SDS011;16799;50.844;5.304;2023-05-07T00:01:18;6.13;;;5.83;;
29938;SDS011;16799;50.844;5.304;2023-05-07T00:03:44;6.63;;;6.03;;
29938;SDS011;16799;50.844;5.304;2023-05-07T00:06:09;7.83;;;7.00;;
29938;SDS011;16799;50.844;5.304;2023-05-07T00:08:37;6.93;;;6.23;;
29938;SDS011;16799;50.844;5.304;2023-05-07T00:11:03;8.10;;;7.47;;
29938;SDS011;16799;50.844;5.304;2023-05-07T00:13:29;7.00;;;6.37;;
29938;SDS011;16799;50.844;5.304;2023-05-07T00:16:00;6.23;;;5.83;;
29938;SDS011;16799;50.844;5.304;2023-05-07T00:18:26;8.03;;;7.43;;
29938;SDS011;16799;50.844;5.304;2023-05-07T00:20:52;7.07;;;6.30;;
29938;SDS011;16799;50.844;5.304;2023-05-07T00:23:18;8.03;;;6.77;;
29938;SDS011;16799;50.844;5.304;2023-05-07T00:25:43;7.07;;;6.57;;
29938;SDS011;16799;50.844;5.304;2023-05-07T00:28:09;7.83;;;7.10;;
29938;SDS011;16799;50.844;5.304;2023-05-07T00:30:34;7.10;;;6.40;;
29938;SDS011;16799;50.844;5.304;2023-05-07T00:33:01;6.47;;;6.07;;
29938;SDS011;16799;50.844;5.304;2023-05-07T00:35:28;7.73;;;7.17;;
29938;SDS011;16799;50.844;5.304;2023-05-07T00:37:54;7.20;;;6.67;;
29938;SDS011;16799;50.844;5.304;2023-05-07T00:40:20;8.50;;;7.73;;
29938;SDS011;16799;50.844;5.304;2023-05-07T00:42:46;8.43;;;7.60;;
29938;SDS011;16799;50.844;5.304;2023-05-07T00:45:12;11.37;;;7.47;;
29938;SDS011;16799;50.844;5.304;2023-05-07T00:47:39;7.97;;;7.10;;
29938;SDS011;16799;50.844;5.304;2023-05-07T00:50:05;8.30;;;7.50;;
29938;SDS011;16799;50.844;5.304;2023-05-07T00:52:32;7.60;;;7.00;;
29938;SDS011;16799;50.844;5.304;2023-05-07T00:54:57;12.07;;;8.07;;
29938;SDS011;16799;50.844;5.304;2023-05-07T00:57:29;8.03;;;7.30;;
29938;SDS011;16799;50.844;5.304;2023-05-07T00:59:57;9.07;;;7.90;;
29938;SDS011;16799;50.844;5.304;2023-05-07T01:02:23;12.87;;;7.53;;
29938;SDS011;16799;50.844;5.304;2023-05-07T01:04:48;8.80;;;8.10;;
29938;SDS011;16799;50.844;5.304;2023-05-07T01:07:14;7.70;;;7.13;;
29938;SDS011;16799;50.844;5.304;2023-05-07T01:09:40;6.73;;;6.33;;
29938;SDS011;16799;50.844;5.304;2023-05-07T01:12:06;7.20;;;6.70;;
29938;SDS011;16799;50.844;5.304;2023-05-07T01:14:32;8.97;;;8.17;;
29938;SDS011;16799;50.844;5.304;2023-05-07T01:16:59;7.47;;;6.87;;
29938;SDS011;16799;50.844;5.304;2023-05-07T01:19:24;8.70;;;8.00;;
29938;SDS011;16799;50.844;5.304;2023-05-07T01:21:52;9.00;;;8.30;;
29938;SDS011;16799;50.844;5.304;2023-05-07T01:24:25;8.00;;;7.07;;
29938;SDS011;16799;50.844;5.304;2023-05-07T01:26:51;8.83;;;8.13;;
29938;SDS011;16799;50.844;5.304;2023-05-07T01:29:17;7.60;;;6.77;;
29938;SDS011;16799;50.844;5.304;2023-05-07T01:31:42;8.10;;;7.43;;
29938;SDS011;16799;50.844;5.304;2023-05-07T01:34:09;8.50;;;7.70;;
29938;SDS011;16799;50.844;5.304;2023-05-07T01:36:37;9.77;;;8.87;;
29938;SDS011;16799;50.844;5.304;2023-05-07T01:39:05;8.23;;;7.57;;
29938;SDS011;16799;50.844;5.304;2023-05-07T01:41:31;8.30;;;7.73;;
29938;SDS011;16799;50.844;5.304;2023-05-07T01:43:57;9.30;;;8.50;;
29938;SDS011;16799;50.844;5.304;2023-05-07T01:46:24;9.33;;;8.53;;
29938;SDS011;16799;50.844;5.304;2023-05-07T01:48:51;12.20;;;8.43;;
29938;SDS011;16799;50.844;5.304;2023-05-07T01:51:16;9.87;;;9.27;;
29938;SDS011;16799;50.844;5.304;2023-05-07T01:53:42;8.67;;;7.90;;
29938;SDS011;16799;50.844;5.304;2023-05-07T01:56:09;10.53;;;9.53;;
29938;SDS011;16799;50.844;5.304;2023-05-07T01:58:34;9.97;;;9.00;;
29938;SDS011;16799;50.844;5.304;2023-05-07T02:01:00;9.30;;;8.40;;
29938;SDS011;16799;50.844;5.304;2023-05-07T02:03:26;8.87;;;8.20;;
29938;SDS011;16799;50.844;5.304;2023-05-07T02:05:51;9.97;;;9.00;;
29938;SDS011;16799;50.844;5.304;2023-05-07T02:08:17;12.20;;;10.93;;
29938;SDS011;16799;50.844;5.304;2023-05-07T02:10:42;10.27;;;9.40;;
29938;SDS011;16799;50.844;5.304;2023-05-07T02:13:08;8.87;;;8.07;;
29938;SDS011;16799;50.844;5.304;2023-05-07T02:15:34;9.03;;;8.17;;
29938;SDS011;16799;50.844;5.304;2023-05-07T02:18:00;10.07;;;8.20;;
29938;SDS011;16799;50.844;5.304;2023-05-07T02:20:28;12.90;;;8.83;;
29938;SDS011;16799;50.844;5.304;2023-05-07T02:22:53;11.70;;;8.13;;
29938;SDS011;16799;50.844;5.304;2023-05-07T02:25:19;9.27;;;8.57;;
29938;SDS011;16799;50.844;5.304;2023-05-07T02:27:44;11.30;;;9.90;;
29938;SDS011;16799;50.844;5.304;2023-05-07T02:30:10;8.53;;;7.67;;
29938;SDS011;16799;50.844;5.304;2023-05-07T02:32:36;10.00;;;9.13;;
29938;SDS011;16799;50.844;5.304;2023-05-07T02:35:02;8.73;;;8.03;;
29938;SDS011;16799;50.844;5.304;2023-05-07T02:37:27;12.43;;;9.50;;
29938;SDS011;16799;50.844;5.304;2023-05-07T02:39:53;9.47;;;8.60;;
29938;SDS011;16799;50.844;5.304;2023-05-07T02:42:19;10.43;;;8.67;;
29938;SDS011;16799;50.844;5.304;2023-05-07T02:44:44;9.77;;;7.80;;
29938;SDS011;16799;50.844;5.304;2023-05-07T02:47:10;9.33;;;8.27;;
29938;SDS011;16799;50.844;5.304;2023-05-07T02:49:37;10.73;;;8.40;;
29938;SDS011;16799;50.844;5.304;2023-05-07T02:52:03;8.57;;;7.90;;
29938;SDS011;16799;50.844;5.304;2023-05-07T02:54:29;8.80;;;8.10;;
29938;SDS011;16799;50.844;5.304;2023-05-07T02:56:55;8.63;;;7.93;;
29938;SDS011;16799;50.844;5.304;2023-05-07T02:59:21;8.07;;;7.20;;
29938;SDS011;16799;50.844;5.304;2023-05-07T03:01:46;10.17;;;9.10;;
29938;SDS011;16799;50.844;5.304;2023-05-07T03:04:13;11.20;;;8.73;;
29938;SDS011;16799;50.844;5.304;2023-05-07T03:06:38;9.90;;;9.00;;
29938;SDS011;16799;50.844;5.304;2023-05-07T03:09:04;13.43;;;9.40;;
29938;SDS011;16799;50.844;5.304;2023-05-07T03:11:30;10.60;;;9.80;;
29938;SDS011;16799;50.844;5.304;2023-05-07T03:13:56;15.10;;;8.50;;
29938;SDS011;16799;50.844;5.304;2023-05-07T03:16:21;9.83;;;8.80;;
29938;SDS011;16799;50.844;5.304;2023-05-07T03:18:47;10.50;;;9.70;;
29938;SDS011;16799;50.844;5.304;2023-05-07T03:21:12;11.67;;;7.60;;
29938;SDS011;16799;50.844;5.304;2023-05-07T03:23:38;8.73;;;7.70;;
29938;SDS011;16799;50.844;5.304;2023-05-07T03:26:04;10.10;;;9.20;;
29938;SDS011;16799;50.844;5.304;2023-05-07T03:28:29;9.10;;;8.47;;
29938;SDS011;16799;50.844;5.304;2023-05-07T03:30:55;13.73;;;9.53;;
29938;SDS011;16799;50.844;5.304;2023-05-07T03:33:21;12.10;;;11.00;;
29938;SDS011;16799;50.844;5.304;2023-05-07T03:35:47;17.00;;;11.57;;
29938;SDS011;16799;50.844;5.304;2023-05-07T03:38:12;10.50;;;9.47;;
29938;SDS011;16799;50.844;5.304;2023-05-07T03:40:38;10.60;;;9.60;;
29938;SDS011;16799;50.844;5.304;2023-05-07T03:43:03;14.53;;;11.53;;
29938;SDS011;16799;50.844;5.304;2023-05-07T03:45:29;11.57;;;10.57;;
29938;SDS011;16799;50.844;5.304;2023-05-07T03:47:55;11.03;;;10.03;;
29938;SDS011;16799;50.844;5.304;2023-05-07T03:50:20;10.03;;;8.80;;
29938;SDS011;16799;50.844;5.304;2023-05-07T03:52:46;13.30;;;8.80;;
29938;SDS011;16799;50.844;5.304;2023-05-07T03:55:12;10.83;;;9.90;;
29938;SDS011;16799;50.844;5.304;2023-05-07T03:57:37;9.30;;;8.47;;
29938;SDS011;16799;50.844;5.304;2023-05-07T04:00:03;9.87;;;9.07;;
29938;SDS011;16799;50.844;5.304;2023-05-07T04:02:30;12.00;;;10.67;;
29938;SDS011;16799;50.844;5.304;2023-05-07T04:04:55;11.33;;;10.33;;
29938;SDS011;16799;50.844;5.304;2023-05-07T04:07:21;10.37;;;9.27;;
29938;SDS011;16799;50.844;5.304;2023-05-07T04:09:47;10.20;;;9.10;;
29938;SDS011;16799;50.844;5.304;2023-05-07T04:12:14;11.90;;;10.20;;
29938;SDS011;16799;50.844;5.304;2023-05-07T04:14:40;10.10;;;9.17;;
29938;SDS011;16799;50.844;5.304;2023-05-07T04:17:06;12.50;;;11.40;;
29938;SDS011;16799;50.844;5.304;2023-05-07T04:19:33;13.33;;;10.37;;
29938;SDS011;16799;50.844;5.304;2023-05-07T04:21:58;14.70;;;10.73;;
29938;SDS011;16799;50.844;5.304;2023-05-07T04:24:24;12.53;;;9.50;;
29938;SDS011;16799;50.844;5.304;2023-05-07T04:26:50;10.87;;;9.83;;
29938;SDS011;16799;50.844;5.304;2023-05-07T04:29:16;9.77;;;9.00;;
29938;SDS011;16799;50.844;5.304;2023-05-07T04:31:42;13.60;;;10.17;;
29938;SDS011;16799;50.844;5.304;2023-05-07T04:34:09;14.77;;;9.90;;
29938;SDS011;16799;50.844;5.304;2023-05-07T04:36:36;14.83;;;12.03;;
29938;SDS011;16799;50.844;5.304;2023-05-07T04:39:03;14.23;;;10.17;;
29938;SDS011;16799;50.844;5.304;2023-05-07T04:41:28;11.67;;;10.47;;
29938;SDS011;16799;50.844;5.304;2023-05-07T04:43:54;13.40;;;11.17;;
29938;SDS011;16799;50.844;5.304;2023-05-07T04:46:20;12.20;;;11.10;;
29938;SDS011;16799;50.844;5.304;2023-05-07T04:48:46;12.27;;;11.03;;
29938;SDS011;16799;50.844;5.304;2023-05-07T04:51:11;13.73;;;10.20;;
29938;SDS011;16799;50.844;5.304;2023-05-07T04:53:37;11.93;;;10.73;;
29938;SDS011;16799;50.844;5.304;2023-05-07T04:56:03;22.30;;;10.33;;
29938;SDS011;16799;50.844;5.304;2023-05-07T04:58:29;13.10;;;10.27;;
29938;SDS011;16799;50.844;5.304;2023-05-07T05:00:56;13.73;;;9.73;;
29938;SDS011;16799;50.844;5.304;2023-05-07T05:03:23;14.40;;;9.73;;
29938;SDS011;16799;50.844;5.304;2023-05-07T05:05:49;11.27;;;10.07;;
29938;SDS011;16799;50.844;5.304;2023-05-07T05:08:16;11.33;;;10.20;;
29938;SDS011;16799;50.844;5.304;2023-05-07T05:10:42;11.90;;;9.90;;
29938;SDS011;16799;50.844;5.304;2023-05-07T05:13:08;15.27;;;11.03;;
29938;SDS011;16799;50.844;5.304;2023-05-07T05:15:34;10.57;;;9.30;;
29938;SDS011;16799;50.844;5.304;2023-05-07T05:18:00;10.63;;;9.73;;
29938;SDS011;16799;50.844;5.304;2023-05-07T05:20:26;11.10;;;10.13;;
29938;SDS011;16799;50.844;5.304;2023-05-07T05:22:52;11.63;;;10.53;;
29938;SDS011;16799;50.844;5.304;2023-05-07T05:25:17;11.70;;;10.67;;
29938;SDS011;16799;50.844;5.304;2023-05-07T05:27:43;12.50;;;11.10;;
29938;SDS011;16799;50.844;5.304;2023-05-07T05:30:09;11.73;;;10.67;;
29938;SDS011;16799;50.844;5.304;2023-05-07T05:32:35;11.40;;;10.30;;
29938;SDS011;16799;50.844;5.304;2023-05-07T05:35:00;10.87;;;9.87;;
29938;SDS011;16799;50.844;5.304;2023-05-07T05:37:26;13.87;;;12.40;;
29938;SDS011;16799;50.844;5.304;2023-05-07T05:39:52;10.70;;;9.70;;
29938;SDS011;16799;50.844;5.304;2023-05-07T05:42:19;12.17;;;11.20;;
29938;SDS011;16799;50.844;5.304;2023-05-07T05:44:45;10.47;;;9.53;;
29938;SDS011;16799;50.844;5.304;2023-05-07T05:47:11;11.87;;;10.90;;
29938;SDS011;16799;50.844;5.304;2023-05-07T05:49:36;11.33;;;10.43;;
29938;SDS011;16799;50.844;5.304;2023-05-07T05:52:02;12.90;;;11.70;;
29938;SDS011;16799;50.844;5.304;2023-05-07T05:54:28;10.33;;;9.40;;
29938;SDS011;16799;50.844;5.304;2023-05-07T05:56:53;11.00;;;10.03;;
29938;SDS011;16799;50.844;5.304;2023-05-07T05:59:19;12.77;;;11.60;;
29938;SDS011;16799;50.844;5.304;2023-05-07T06:01:45;12.57;;;11.40;;
29938;SDS011;16799;50.844;5.304;2023-05-07T06:04:11;11.57;;;10.03;;
29938;SDS011;16799;50.844;5.304;2023-05-07T06:06:36;12.00;;;10.77;;
29938;SDS011;16799;50.844;5.304;2023-05-07T06:09:02;11.83;;;10.23;;
29938;SDS011;16799;50.844;5.304;2023-05-07T06:11:28;13.50;;;10.50;;
29938;SDS011;16799;50.844;5.304;2023-05-07T06:13:53;11.20;;;10.20;;
29938;SDS011;16799;50.844;5.304;2023-05-07T06:16:19;11.40;;;10.03;;
29938;SDS011;16799;50.844;5.304;2023-05-07T06:18:45;17.53;;;10.27;;
29938;SDS011;16799;50.844;5.304;2023-05-07T06:21:11;11.10;;;10.00;;
29938;SDS011;16799;50.844;5.304;2023-05-07T06:23:38;10.80;;;9.87;;
29938;SDS011;16799;50.844;5.304;2023-05-07T06:26:05;9.97;;;9.17;;
29938;SDS011;16799;50.844;5.304;2023-05-07T06:28:31;10.20;;;9.40;;
29938;SDS011;16799;50.844;5.304;2023-05-07T06:31:13;18.63;;;9.03;;
29938;SDS011;16799;50.844;5.304;2023-05-07T06:33:40;11.30;;;10.17;;
29938;SDS011;16799;50.844;5.304;2023-05-07T06:36:06;9.60;;;8.37;;
29938;SDS011;16799;50.844;5.304;2023-05-07T06:38:31;14.77;;;9.63;;
29938;SDS011;16799;50.844;5.304;2023-05-07T06:40:57;8.90;;;8.10;;
29938;SDS011;16799;50.844;5.304;2023-05-07T06:43:23;9.77;;;7.70;;
29938;SDS011;16799;50.844;5.304;2023-05-07T06:45:48;8.03;;;7.10;;
29938;SDS011;16799;50.844;5.304;2023-05-07T06:48:14;12.30;;;7.13;;
29938;SDS011;16799;50.844;5.304;2023-05-07T06:50:40;8.03;;;7.33;;
29938;SDS011;16799;50.844;5.304;2023-05-07T06:53:07;8.93;;;7.83;;
29938;SDS011;16799;50.844;5.304;2023-05-07T06:55:32;7.10;;;6.50;;
29938;SDS011;16799;50.844;5.304;2023-05-07T06:57:58;7.20;;;6.60;;
29938;SDS011;16799;50.844;5.304;2023-05-07T07:00:26;6.90;;;6.40;;
29938;SDS011;16799;50.844;5.304;2023-05-07T07:02:52;5.67;;;5.17;;
29938;SDS011;16799;50.844;5.304;2023-05-07T07:05:18;6.00;;;5.00;;
29938;SDS011;16799;50.844;5.304;2023-05-07T07:07:44;6.40;;;4.90;;
29938;SDS011;16799;50.844;5.304;2023-05-07T07:10:17;5.87;;;4.77;;
29938;SDS011;16799;50.844;5.304;2023-05-07T07:12:45;5.53;;;4.80;;
29938;SDS011;16799;50.844;5.304;2023-05-07T07:15:11;6.53;;;6.13;;
29938;SDS011;16799;50.844;5.304;2023-05-07T07:17:38;7.53;;;5.83;;
29938;SDS011;16799;50.844;5.304;2023-05-07T07:20:04;4.93;;;4.50;;
29938;SDS011;16799;50.844;5.304;2023-05-07T07:22:30;5.73;;;4.87;;
29938;SDS011;16799;50.844;5.304;2023-05-07T07:24:56;4.77;;;4.40;;
29938;SDS011;16799;50.844;5.304;2023-05-07T07:27:22;5.67;;;4.87;;
29938;SDS011;16799;50.844;5.304;2023-05-07T07:29:47;5.03;;;4.20;;
29938;SDS011;16799;50.844;5.304;2023-05-07T07:32:13;5.33;;;4.83;;
29938;SDS011;16799;50.844;5.304;2023-05-07T07:34:39;4.20;;;3.93;;
29938;SDS011;16799;50.844;5.304;2023-05-07T07:37:05;7.17;;;4.70;;
29938;SDS011;16799;50.844;5.304;2023-05-07T07:39:34;5.10;;;4.60;;
29938;SDS011;16799;50.844;5.304;2023-05-07T07:42:00;3.83;;;3.53;;
29938;SDS011;16799;50.844;5.304;2023-05-07T07:44:26;5.73;;;5.20;;
29938;SDS011;16799;50.844;5.304;2023-05-07T07:46:53;4.07;;;3.77;;
29938;SDS011;16799;50.844;5.304;2023-05-07T07:49:19;6.90;;;4.30;;
29938;SDS011;16799;50.844;5.304;2023-05-07T07:51:44;4.20;;;3.90;;
29938;SDS011;16799;50.844;5.304;2023-05-07T07:54:10;4.87;;;4.07;;
29938;SDS011;16799;50.844;5.304;2023-05-07T07:56:36;3.83;;;3.53;;
29938;SDS011;16799;50.844;5.304;2023-05-07T07:59:01;4.03;;;3.23;;
29938;SDS011;16799;50.844;5.304;2023-05-07T08:01:28;6.80;;;4.70;;
29938;SDS011;16799;50.844;5.304;2023-05-07T08:03:55;3.37;;;3.07;;
29938;SDS011;16799;50.844;5.304;2023-05-07T08:06:22;4.87;;;4.37;;
29938;SDS011;16799;50.844;5.304;2023-05-07T08:08:48;8.63;;;4.20;;
29938;SDS011;16799;50.844;5.304;2023-05-07T08:11:14;4.67;;;4.33;;
29938;SDS011;16799;50.844;5.304;2023-05-07T08:13:39;7.73;;;5.53;;
29938;SDS011;16799;50.844;5.304;2023-05-07T08:16:05;4.50;;;4.10;;
29938;SDS011;16799;50.844;5.304;2023-05-07T08:18:31;5.13;;;4.63;;
29938;SDS011;16799;50.844;5.304;2023-05-07T08:20:56;4.63;;;4.23;;
29938;SDS011;16799;50.844;5.304;2023-05-07T08:23:22;5.30;;;4.80;;
29938;SDS011;16799;50.844;5.304;2023-05-07T08:25:48;6.07;;;5.57;;
29938;SDS011;16799;50.844;5.304;2023-05-07T08:28:15;29.47;;;13.50;;
29938;SDS011;16799;50.844;5.304;2023-05-07T08:30:40;5.70;;;5.30;;
29938;SDS011;16799;50.844;5.304;2023-05-07T08:33:08;5.90;;;5.47;;
29938;SDS011;16799;50.844;5.304;2023-05-07T08:35:33;7.53;;;5.67;;
29938;SDS011;16799;50.844;5.304;2023-05-07T08:37:59;7.50;;;5.13;;
29938;SDS011;16799;50.844;5.304;2023-05-07T08:40:25;5.40;;;5.00;;
29938;SDS011;16799;50.844;5.304;2023-05-07T08:42:52;6.20;;;5.20;;
29938;SDS011;16799;50.844;5.304;2023-05-07T08:45:19;7.10;;;5.53;;
29938;SDS011;16799;50.844;5.304;2023-05-07T08:47:50;5.73;;;5.23;;
29938;SDS011;16799;50.844;5.304;2023-05-07T08:50:21;8.70;;;6.57;;
29938;SDS011;16799;50.844;5.304;2023-05-07T08:52:47;11.20;;;5.43;;
29938;SDS011;16799;50.844;5.304;2023-05-07T08:55:13;7.97;;;6.13;;
29938;SDS011;16799;50.844;5.304;2023-05-07T08:57:40;7.40;;;6.00;;
29938;SDS011;16799;50.844;5.304;2023-05-07T09:00:05;9.00;;;6.87;;
29938;SDS011;16799;50.844;5.304;2023-05-07T09:02:32;6.97;;;6.13;;
29938;SDS011;16799;50.844;5.304;2023-05-07T09:04:59;9.53;;;5.60;;
29938;SDS011;16799;50.844;5.304;2023-05-07T09:07:25;7.90;;;6.10;;
29938;SDS011;16799;50.844;5.304;2023-05-07T09:09:51;10.77;;;8.97;;
29938;SDS011;16799;50.844;5.304;2023-05-07T09:12:18;10.07;;;6.43;;
29938;SDS011;16799;50.844;5.304;2023-05-07T09:14:44;10.67;;;6.40;;
29938;SDS011;16799;50.844;5.304;2023-05-07T09:17:10;9.00;;;7.57;;
29938;SDS011;16799;50.844;5.304;2023-05-07T09:19:36;8.90;;;7.57;;
29938;SDS011;16799;50.844;5.304;2023-05-07T09:22:02;9.03;;;7.80;;
29938;SDS011;16799;50.844;5.304;2023-05-07T09:24:29;8.87;;;7.00;;
29938;SDS011;16799;50.844;5.304;2023-05-07T09:26:59;7.67;;;6.97;;
29938;SDS011;16799;50.844;5.304;2023-05-07T09:29:26;14.37;;;7.70;;
29938;SDS011;16799;50.844;5.304;2023-05-07T09:32:00;8.40;;;7.60;;
29938;SDS011;16799;50.844;5.304;2023-05-07T09:34:35;17.13;;;7.43;;
29938;SDS011;16799;50.844;5.304;2023-05-07T09:37:01;13.93;;;8.27;;
29938;SDS011;16799;50.844;5.304;2023-05-07T09:39:47;10.30;;;7.60;;
29938;SDS011;16799;50.844;5.304;2023-05-07T09:42:14;8.30;;;7.37;;
29938;SDS011;16799;50.844;5.304;2023-05-07T09:44:40;8.50;;;5.93;;
29938;SDS011;16799;50.844;5.304;2023-05-07T09:47:08;11.70;;;6.60;;
29938;SDS011;16799;50.844;5.304;2023-05-07T09:49:35;11.13;;;4.67;;
29938;SDS011;16799;50.844;5.304;2023-05-07T09:52:03;4.27;;;3.73;;
29938;SDS011;16799;50.844;5.304;2023-05-07T09:54:35;9.63;;;4.60;;
29938;SDS011;16799;50.844;5.304;2023-05-07T09:57:03;13.63;;;5.57;;
29938;SDS011;16799;50.844;5.304;2023-05-07T09:59:31;12.60;;;4.60;;
29938;SDS011;16799;50.844;5.304;2023-05-07T10:01:58;6.53;;;3.90;;
29938;SDS011;16799;50.844;5.304;2023-05-07T10:04:24;5.57;;;4.00;;
29938;SDS011;16799;50.844;5.304;2023-05-07T10:06:51;9.13;;;4.37;;
29938;SDS011;16799;50.844;5.304;2023-05-07T10:09:18;7.77;;;3.90;;
29938;SDS011;16799;50.844;5.304;2023-05-07T10:11:44;7.97;;;4.43;;
29938;SDS011;16799;50.844;5.304;2023-05-07T10:14:11;7.90;;;4.83;;
29938;SDS011;16799;50.844;5.304;2023-05-07T10:16:37;8.80;;;5.60;;
29938;SDS011;16799;50.844;5.304;2023-05-07T10:19:06;8.53;;;5.77;;
29938;SDS011;16799;50.844;5.304;2023-05-07T10:21:39;8.47;;;6.23;;
29938;SDS011;16799;50.844;5.304;2023-05-07T10:24:12;7.93;;;5.07;;
29938;SDS011;16799;50.844;5.304;2023-05-07T10:26:45;16.27;;;5.90;;
29938;SDS011;16799;50.844;5.304;2023-05-07T10:29:17;14.03;;;5.73;;
29938;SDS011;16799;50.844;5.304;2023-05-07T10:34:39;8.90;;;5.30;;
29938;SDS011;16799;50.844;5.304;2023-05-07T10:37:07;6.63;;;5.73;;
29938;SDS011;16799;50.844;5.304;2023-05-07T10:39:35;6.70;;;5.50;;
29938;SDS011;16799;50.844;5.304;2023-05-07T10:42:08;5.20;;;4.80;;
29938;SDS011;16799;50.844;5.304;2023-05-07T10:44:34;9.93;;;6.90;;
29938;SDS011;16799;50.844;5.304;2023-05-07T10:47:11;5.40;;;4.60;;
29938;SDS011;16799;50.844;5.304;2023-05-07T10:52:10;7.27;;;5.47;;
29938;SDS011;16799;50.844;5.304;2023-05-07T10:54:43;9.90;;;7.07;;
29938;SDS011;16799;50.844;5.304;2023-05-07T11:05:26;16.57;;;7.00;;
29938;SDS011;16799;50.844;5.304;2023-05-07T11:07:54;5.80;;;5.13;;
29938;SDS011;16799;50.844;5.304;2023-05-07T11:13:14;6.73;;;5.40;;
29938;SDS011;16799;50.844;5.304;2023-05-07T11:15:47;11.30;;;7.83;;
29938;SDS011;16799;50.844;5.304;2023-05-07T11:18:16;12.37;;;6.80;;
29938;SDS011;16799;50.844;5.304;2023-05-07T11:20:50;13.77;;;6.60;;
29938;SDS011;16799;50.844;5.304;2023-05-07T11:26:07;11.10;;;7.53;;
29938;SDS011;16799;50.844;5.304;2023-05-07T11:28:38;7.20;;;5.63;;
29938;SDS011;16799;50.844;5.304;2023-05-07T11:31:05;8.90;;;7.33;;
29938;SDS011;16799;50.844;5.304;2023-05-07T11:33:31;7.20;;;5.70;;
29938;SDS011;16799;50.844;5.304;2023-05-07T11:35:57;12.87;;;7.20;;
29938;SDS011;16799;50.844;5.304;2023-05-07T11:38:24;7.57;;;6.03;;
29938;SDS011;16799;50.844;5.304;2023-05-07T11:40:51;7.93;;;5.87;;
29938;SDS011;16799;50.844;5.304;2023-05-07T11:43:18;9.30;;;6.97;;
29938;SDS011;16799;50.844;5.304;2023-05-07T11:45:44;11.47;;;6.97;;
29938;SDS011;16799;50.844;5.304;2023-05-07T11:48:12;5.87;;;5.30;;
29938;SDS011;16799;50.844;5.304;2023-05-07T11:50:59;9.87;;;6.97;;
29938;SDS011;16799;50.844;5.304;2023-05-07T11:53:28;21.00;;;7.50;;
29938;SDS011;16799;50.844;5.304;2023-05-07T11:56:05;14.53;;;8.43;;
29938;SDS011;16799;50.844;5.304;2023-05-07T11:58:35;13.47;;;6.80;;
29938;SDS011;16799;50.844;5.304;2023-05-07T12:01:01;14.93;;;8.07;;
29938;SDS011;16799;50.844;5.304;2023-05-07T12:03:27;9.10;;;7.83;;
29938;SDS011;16799;50.844;5.304;2023-05-07T12:05:52;10.43;;;8.30;;
29938;SDS011;16799;50.844;5.304;2023-05-07T12:08:19;15.43;;;9.07;;
29938;SDS011;16799;50.844;5.304;2023-05-07T12:10:46;10.77;;;9.87;;
29938;SDS011;16799;50.844;5.304;2023-05-07T12:13:17;10.47;;;9.03;;
29938;SDS011;16799;50.844;5.304;2023-05-07T12:15:44;13.57;;;8.67;;
29938;SDS011;16799;50.844;5.304;2023-05-07T12:18:13;13.30;;;8.53;;
29938;SDS011;16799;50.844;5.304;2023-05-07T12:20:39;9.60;;;7.90;;
29938;SDS011;16799;50.844;5.304;2023-05-07T12:23:06;9.60;;;7.87;;
29938;SDS011;16799;50.844;5.304;2023-05-07T12:25:34;10.00;;;8.93;;
29938;SDS011;16799;50.844;5.304;2023-05-07T12:28:01;8.67;;;8.03;;
29938;SDS011;16799;50.844;5.304;2023-05-07T12:30:29;14.17;;;9.93;;
29938;SDS011;16799;50.844;5.304;2023-05-07T12:33:01;8.10;;;7.47;;
29938;SDS011;16799;50.844;5.304;2023-05-07T12:35:31;9.97;;;8.57;;
29938;SDS011;16799;50.844;5.304;2023-05-07T12:38:00;13.60;;;8.53;;
29938;SDS011;16799;50.844;5.304;2023-05-07T12:43:28;11.83;;;8.33;;
29938;SDS011;16799;50.844;5.304;2023-05-07T12:45:55;10.73;;;7.50;;
29938;SDS011;16799;50.844;5.304;2023-05-07T12:48:22;8.73;;;7.30;;
29938;SDS011;16799;50.844;5.304;2023-05-07T12:50:49;11.83;;;6.40;;
29938;SDS011;16799;50.844;5.304;2023-05-07T12:53:15;9.80;;;6.90;;
29938;SDS011;16799;50.844;5.304;2023-05-07T12:55:47;8.37;;;6.07;;
29938;SDS011;16799;50.844;5.304;2023-05-07T12:58:33;8.43;;;4.37;;
29938;SDS011;16799;50.844;5.304;2023-05-07T13:01:01;10.30;;;5.37;;
29938;SDS011;16799;50.844;5.304;2023-05-07T13:03:33;6.23;;;5.53;;
29938;SDS011;16799;50.844;5.304;2023-05-07T13:06:04;8.43;;;4.20;;
29938;SDS011;16799;50.844;5.304;2023-05-07T13:08:32;4.90;;;4.13;;
29938;SDS011;16799;50.844;5.304;2023-05-07T13:11:00;5.17;;;3.83;;
29938;SDS011;16799;50.844;5.304;2023-05-07T13:13:33;4.17;;;3.50;;
29938;SDS011;16799;50.844;5.304;2023-05-07T13:16:00;8.60;;;4.73;;
29938;SDS011;16799;50.844;5.304;2023-05-07T13:18:27;9.70;;;5.93;;
29938;SDS011;16799;50.844;5.304;2023-05-07T13:20:54;6.43;;;4.77;;
29938;SDS011;16799;50.844;5.304;2023-05-07T13:23:20;8.23;;;5.87;;
29938;SDS011;16799;50.844;5.304;2023-05-07T13:25:45;7.50;;;5.63;;
29938;SDS011;16799;50.844;5.304;2023-05-07T13:28:11;8.33;;;5.53;;
29938;SDS011;16799;50.844;5.304;2023-05-07T13:30:37;6.83;;;5.93;;
29938;SDS011;16799;50.844;5.304;2023-05-07T13:33:03;6.00;;;5.23;;
29938;SDS011;16799;50.844;5.304;2023-05-07T13:35:29;7.87;;;6.30;;
29938;SDS011;16799;50.844;5.304;2023-05-07T13:37:55;10.07;;;6.13;;
29938;SDS011;16799;50.844;5.304;2023-05-07T13:40:23;11.53;;;5.80;;
29938;SDS011;16799;50.844;5.304;2023-05-07T13:42:49;6.13;;;5.60;;
29938;SDS011;16799;50.844;5.304;2023-05-07T13:45:16;7.83;;;5.00;;
29938;SDS011;16799;50.844;5.304;2023-05-07T13:47:42;6.30;;;4.07;;
29938;SDS011;16799;50.844;5.304;2023-05-07T13:50:09;7.10;;;4.73;;
29938;SDS011;16799;50.844;5.304;2023-05-07T13:52:36;4.50;;;4.20;;
29938;SDS011;16799;50.844;5.304;2023-05-07T13:55:02;6.37;;;3.67;;
29938;SDS011;16799;50.844;5.304;2023-05-07T13:57:28;13.27;;;5.33;;
29938;SDS011;16799;50.844;5.304;2023-05-07T13:59:53;5.10;;;4.47;;
29938;SDS011;16799;50.844;5.304;2023-05-07T14:02:19;9.20;;;4.07;;
29938;SDS011;16799;50.844;5.304;2023-05-07T14:04:45;10.93;;;3.40;;
29938;SDS011;16799;50.844;5.304;2023-05-07T14:07:10;8.60;;;3.87;;
29938;SDS011;16799;50.844;5.304;2023-05-07T14:09:36;5.57;;;2.60;;
29938;SDS011;16799;50.844;5.304;2023-05-07T14:12:02;8.07;;;3.90;;
29938;SDS011;16799;50.844;5.304;2023-05-07T14:14:28;7.57;;;3.00;;
29938;SDS011;16799;50.844;5.304;2023-05-07T14:16:53;6.47;;;3.10;;
29938;SDS011;16799;50.844;5.304;2023-05-07T14:19:19;9.40;;;4.53;;
29938;SDS011;16799;50.844;5.304;2023-05-07T14:21:44;5.40;;;3.57;;
29938;SDS011;16799;50.844;5.304;2023-05-07T14:24:10;4.63;;;4.00;;
29938;SDS011;16799;50.844;5.304;2023-05-07T14:26:36;6.70;;;3.73;;
29938;SDS011;16799;50.844;5.304;2023-05-07T14:29:02;6.90;;;5.07;;
29938;SDS011;16799;50.844;5.304;2023-05-07T14:31:28;4.67;;;4.23;;
29938;SDS011;16799;50.844;5.304;2023-05-07T14:33:54;6.93;;;4.40;;
29938;SDS011;16799;50.844;5.304;2023-05-07T14:36:19;3.97;;;3.60;;
29938;SDS011;16799;50.844;5.304;2023-05-07T14:38:46;8.43;;;2.90;;
29938;SDS011;16799;50.844;5.304;2023-05-07T14:41:13;6.63;;;3.03;;
29938;SDS011;16799;50.844;5.304;2023-05-07T14:43:39;7.20;;;3.10;;
29938;SDS011;16799;50.844;5.304;2023-05-07T14:46:05;6.60;;;2.03;;
29938;SDS011;16799;50.844;5.304;2023-05-07T14:48:31;6.20;;;2.37;;
29938;SDS011;16799;50.844;5.304;2023-05-07T14:50:56;2.63;;;2.47;;
29938;SDS011;16799;50.844;5.304;2023-05-07T14:53:22;4.30;;;2.80;;
29938;SDS011;16799;50.844;5.304;2023-05-07T14:55:48;5.53;;;2.90;;
29938;SDS011;16799;50.844;5.304;2023-05-07T14:58:14;7.30;;;2.70;;
29938;SDS011;16799;50.844;5.304;2023-05-07T15:00:40;3.87;;;3.30;;